^^
Saratoga-Weather Station Historical Data
Daily Summary for September 29, 2022 Units:  English    Metric   Both
Daily Weekly Monthly Yearly Custom
  High: Low: Average:
Temperature: 56.1 °F 42.6 °F 47.8 °F
Dew Point: 51.8 °F 41.4 °F 45.5 °F
Humidity: 96% 75% 92%
Wind Speed: 4mph 0mph 0.3mph
Wind Gust: 6mph - -
Wind- - SE
Pressure: 29.7 in 29.5 in -
Precipitation: 0.15 in    
Historical Graphs
 
 
Tabular Data for September 29, 2022
Time Temperature Dew Point Pressure Wind Wind Speed Wind Gust Humidity Rainfall Rate (Hourly) solar
00:03 43.5 °F 41.7 °F 29.5 in Calm     93% 0 in 0 W/m2
00:08 43.5 °F 41.7 °F 29.5 in Calm     93% 0 in 0 W/m2
00:13 43.5 °F 41.7 °F 29.5 in Calm     93% 0 in 0 W/m2
00:18 43.5 °F 41.7 °F 29.5 in Calm     93% 0 in 0 W/m2
00:23 43.5 °F 41.7 °F 29.5 in Calm   1 mph 93% 0 in 0 W/m2
00:28 43.5 °F 41.7 °F 29.5 in Calm   1 mph 93% 0 in 0 W/m2
00:33 43.7 °F 41.7 °F 29.5 in Calm     93% 0 in 0 W/m2
00:38 43.9 °F 41.9 °F 29.5 in Calm   1 mph 93% 0 in 0 W/m2
00:43 43.9 °F 41.9 °F 29.5 in Calm     93% 0 in 0 W/m2
00:48 43.9 °F 41.9 °F 29.5 in Calm     93% 0 in 0 W/m2
00:53 43.9 °F 41.9 °F 29.5 in Calm     93% 0 in 0 W/m2
00:58 43.9 °F 41.9 °F 29.5 in Calm     93% 0 in 0 W/m2
01:03 44.1 °F 42.1 °F 29.5 in Calm     93% 0 in 0 W/m2
01:08 44.1 °F 42.1 °F 29.5 in Calm     93% 0 in 0 W/m2
01:13 44.1 °F 42.1 °F 29.5 in Calm     93% 0 in 0 W/m2
01:18 44.1 °F 42.1 °F 29.5 in Calm     93% 0 in 0 W/m2
01:23 44.1 °F 42.1 °F 29.5 in Calm     93% 0 in 0 W/m2
01:28 44.2 °F 42.3 °F 29.5 in WSW 0.9 mph 3 mph 93% 0 in 0 W/m2
01:33 44.4 °F 42.8 °F 29.5 in WSW 0.9 mph 3 mph 94% 0 in 0 W/m2
01:38 45 °F 43.3 °F 29.5 in WNW 0.9 mph 1 mph 94% 0 in 0 W/m2
01:43 45 °F 43 °F 29.5 in Calm   3 mph 93% 0 in 0 W/m2
01:48 45 °F 43 °F 29.5 in Calm   1 mph 93% 0 in 0 W/m2
01:53 45 °F 43 °F 29.5 in Calm     93% 0 in 0 W/m2
01:58 45 °F 43 °F 29.5 in Calm   1 mph 93% 0 in 0 W/m2
02:03 45 °F 43 °F 29.5 in Calm     93% 0 in 0 W/m2
02:08 45 °F 43 °F 29.5 in Calm   1 mph 93% 0 in 0 W/m2
02:13 45.1 °F 43.2 °F 29.5 in Calm     93% 0 in 0 W/m2
02:18 45.1 °F 43.2 °F 29.5 in Calm     93% 0 in 0 W/m2
02:23 45.1 °F 43.2 °F 29.5 in Calm     93% 0 in 0 W/m2
02:28 45.1 °F 43.2 °F 29.5 in Calm     93% 0 in 0 W/m2
02:33 45.3 °F 43.3 °F 29.5 in Calm     93% 0 in 0 W/m2
02:38 45.3 °F 43.3 °F 29.5 in Calm     93% 0 in 0 W/m2
02:43 45.3 °F 43.3 °F 29.5 in Calm     93% 0 in 0 W/m2
02:48 45.3 °F 43.3 °F 29.5 in Calm     93% 0 in 0 W/m2
02:53 45.3 °F 43.3 °F 29.5 in Calm     93% 0 in 0 W/m2
02:58 45.3 °F 43.3 °F 29.5 in Calm   1 mph 93% 0 in 0 W/m2
03:03 45.3 °F 43.3 °F 29.5 in Calm     93% 0 in 0 W/m2
03:08 45.3 °F 43.3 °F 29.5 in Calm     93% 0 in 0 W/m2
03:13 45.1 °F 43.2 °F 29.5 in Calm   1 mph 93% 0 in 0 W/m2
03:18 45.1 °F 43.2 °F 29.5 in Calm     93% 0 in 0 W/m2
03:23 45 °F 43 °F 29.5 in Calm     93% 0 in 0 W/m2
03:28 44.8 °F 42.8 °F 29.5 in Calm   1 mph 93% 0 in 0 W/m2
03:33 44.8 °F 42.8 °F 29.5 in Calm     93% 0 in 0 W/m2
03:38 45 °F 43 °F 29.5 in Calm     93% 0 in 0 W/m2
03:43 45 °F 43.3 °F 29.5 in Calm   2 mph 94% 0 in 0 W/m2
03:48 45 °F 43.3 °F 29.5 in Calm   1 mph 94% 0 in 0 W/m2
03:53 45 °F 43.3 °F 29.5 in Calm   2 mph 94% 0 in 0 W/m2
03:58 44.8 °F 43.2 °F 29.5 in Calm     94% 0 in 0 W/m2
04:03 44.8 °F 43.2 °F 29.5 in Calm     94% 0 in 0 W/m2
04:08 44.8 °F 43.2 °F 29.5 in Calm     94% 0 in 0 W/m2
04:13 44.6 °F 43 °F 29.5 in Calm     94% 0 in 0 W/m2
04:18 44.6 °F 43 °F 29.5 in Calm     94% 0 in 0 W/m2
04:23 44.6 °F 43 °F 29.5 in Calm     94% 0 in 0 W/m2
04:28 44.6 °F 43 °F 29.5 in Calm     94% 0 in 0 W/m2
04:33 44.6 °F 43 °F 29.5 in Calm     94% 0 in 0 W/m2
04:39 44.8 °F 43.2 °F 29.5 in WNW 2 mph 2 mph 94% 0 in 0 W/m2
04:44 44.8 °F 43.2 °F 29.5 in Calm     94% 0 in 0 W/m2
04:49 44.8 °F 43.2 °F 29.5 in Calm     94% 0 in 0 W/m2
04:54 44.8 °F 43.5 °F 29.5 in Calm     95% 0 in 0 W/m2
04:59 45 °F 43.3 °F 29.5 in Calm     94% 0 in 0 W/m2
05:04 45 °F 43.3 °F 29.5 in Calm     94% 0 in 0 W/m2
05:09 45 °F 43.3 °F 29.5 in Calm     94% 0 in 0 W/m2
05:14 45 °F 43.7 °F 29.5 in Calm     95% 0 in 0 W/m2
05:19 45 °F 43.7 °F 29.5 in WNW 0.9 mph 2 mph 95% 0 in 0 W/m2
05:24 45 °F 43.7 °F 29.5 in WNW 2 mph 2 mph 95% 0 in 0 W/m2
05:29 45 °F 43.7 °F 29.5 in Calm   1 mph 95% 0 in 0 W/m2
05:34 45 °F 43.7 °F 29.5 in Calm   1 mph 95% 0 in 0 W/m2
05:39 45 °F 43.3 °F 29.5 in Calm     94% 0 in 0 W/m2
05:44 45 °F 43.3 °F 29.5 in Calm   1 mph 94% 0 in 0 W/m2
05:49 45 °F 43.7 °F 29.5 in Calm   1 mph 95% 0 in 0 W/m2
05:54 45 °F 43.7 °F 29.5 in Calm     95% 0 in 0 W/m2
05:59 45 °F 43.7 °F 29.5 in Calm     95% 0 in 0 W/m2
06:04 45 °F 43.7 °F 29.5 in WNW 0.9 mph 1 mph 95% 0 in 0 W/m2
06:09 45 °F 43.7 °F 29.5 in WNW 0.9 mph 1 mph 95% 0 in 0 W/m2
06:14 45.1 °F 43.9 °F 29.5 in Calm     95% 0 in 0 W/m2
06:19 45.1 °F 43.9 °F 29.5 in Calm     95% 0 in 0 W/m2
06:24 45.1 °F 43.9 °F 29.5 in Calm     95% 0 in 0 W/m2
06:29 45 °F 43.7 °F 29.5 in Calm     95% 0 in 0 W/m2
06:34 45 °F 43.7 °F 29.5 in WNW 0.9 mph 1 mph 95% 0 in 0 W/m2
06:39 45 °F 43.7 °F 29.5 in Calm     95% 0 in 0 W/m2
06:44 45 °F 43.7 °F 29.5 in Calm     95% 0 in 0 W/m2
06:49 45 °F 43.7 °F 29.5 in Calm     95% 0 in 0 W/m2
06:54 45 °F 43.7 °F 29.5 in Calm     95% 0 in 0 W/m2
06:59 45 °F 43.7 °F 29.5 in Calm     95% 0 in 0 W/m2
07:04 45.1 °F 43.9 °F 29.5 in Calm     95% 0 in 0 W/m2
07:09 45.1 °F 43.9 °F 29.5 in Calm     95% 0 in 0 W/m2
07:14 45.1 °F 43.9 °F 29.5 in Calm     95% 0 in 0 W/m2
07:19 45.1 °F 43.9 °F 29.5 in Calm     95% 0 in 0 W/m2
07:24 45.1 °F 43.9 °F 29.5 in Calm     95% 0.02 in 0 W/m2
07:29 45.1 °F 43.9 °F 29.5 in Calm     95% 0.04 in 0 W/m2
07:34 45.1 °F 43.9 °F 29.5 in Calm   2 mph 95% 0.04 in 0 W/m2
07:39 45.1 °F 43.9 °F 29.5 in Calm     95% 0.04 in 0 W/m2
07:44 45.1 °F 43.9 °F 29.5 in Calm   2 mph 95% 0.04 in 7 W/m2
07:49 45.1 °F 43.9 °F 29.5 in Calm     95% 0.04 in 7 W/m2
07:54 45.1 °F 43.9 °F 29.5 in Calm     95% 0.04 in 7 W/m2
07:59 45.1 °F 43.9 °F 29.5 in Calm     95% 0.04 in 9 W/m2
08:04 45.1 °F 43.9 °F 29.5 in Calm     95% 0.04 in 12 W/m2
08:09 45.1 °F 43.9 °F 29.5 in Calm     95% 0.04 in 11 W/m2
08:14 45.3 °F 44.1 °F 29.5 in Calm     95% 0.04 in 12 W/m2
08:19 45.3 °F 44.1 °F 29.5 in NE 0.9 mph 2 mph 95% 0.04 in 18 W/m2
08:24 45.3 °F 44.1 °F 29.5 in NE 2 mph 2 mph 95% 0.02 in 25 W/m2
08:29 45.5 °F 44.2 °F 29.5 in Calm     95% 0 in 32 W/m2
08:34 45.5 °F 44.2 °F 29.5 in Calm   1 mph 95% 0 in 33 W/m2
08:39 45.7 °F 44.4 °F 29.5 in Calm   1 mph 95% 0 in 40 W/m2
08:44 45.7 °F 44.4 °F 29.5 in Calm   2 mph 95% 0.01 in 44 W/m2
08:49 45.9 °F 44.4 °F 29.5 in Calm     95% 0.01 in 44 W/m2
08:54 45.9 °F 44.4 °F 29.5 in NNW 2 mph 2 mph 95% 0.01 in 35 W/m2
08:59 45.9 °F 44.4 °F 29.5 in NNW 0.9 mph 1 mph 95% 0.01 in 37 W/m2
09:04 45.9 °F 44.4 °F 29.5 in NNW 0.9 mph 2 mph 95% 0.01 in 47 W/m2
09:09 45.9 °F 44.4 °F 29.5 in Calm     95% 0.01 in 63 W/m2
09:14 45.9 °F 44.4 °F 29.5 in Calm     95% 0.01 in 49 W/m2
09:19 45.9 °F 44.4 °F 29.6 in Calm     95% 0.01 in 60 W/m2
09:24 46 °F 44.6 °F 29.6 in Calm     95% 0.01 in 47 W/m2
09:29 46 °F 44.6 °F 29.6 in Calm   1 mph 95% 0.01 in 46 W/m2
09:34 46.2 °F 45.1 °F 29.6 in Calm     96% 0.01 in 54 W/m2
09:39 46.2 °F 44.8 °F 29.6 in Calm   1 mph 95% 0.01 in 53 W/m2
09:44 46.2 °F 44.8 °F 29.6 in Calm     95% 0 in 42 W/m2
09:49 46.2 °F 44.8 °F 29.6 in Calm     95% 0 in 54 W/m2
09:54 46.2 °F 44.8 °F 29.6 in Calm     95% 0 in 65 W/m2
09:59 46.6 °F 45.1 °F 29.6 in North 0.9 mph 1 mph 95% 0 in 88 W/m2
10:04 46.6 °F 45.5 °F 29.6 in North 0.9 mph 1 mph 96% 0 in 102 W/m2
10:09 46.8 °F 45.3 °F 29.6 in Calm   1 mph 95% 0 in 104 W/m2
10:14 46.8 °F 45.3 °F 29.6 in Calm     95% 0 in 93 W/m2
10:19 46.9 °F 45.5 °F 29.6 in Calm   2 mph 95% 0 in 109 W/m2
10:24 46.9 °F 45.5 °F 29.6 in Calm   2 mph 95% 0 in 111 W/m2
10:29 46.9 °F 45.5 °F 29.6 in North 2 mph 2 mph 95% 0 in 91 W/m2
10:34 46.9 °F 45.5 °F 29.6 in Calm   1 mph 95% 0 in 90 W/m2
10:39 47.1 °F 45.7 °F 29.6 in Calm   1 mph 95% 0 in 116 W/m2
10:44 47.5 °F 46 °F 29.6 in Calm   1 mph 95% 0 in 123 W/m2
10:49 47.7 °F 46.2 °F 29.6 in Calm   1 mph 95% 0 in 125 W/m2
10:54 47.7 °F 46.2 °F 29.6 in East 0.9 mph 2 mph 95% 0 in 135 W/m2
10:59 47.7 °F 46.2 °F 29.6 in East 2 mph 2 mph 95% 0 in 178 W/m2
11:04 47.8 °F 46.4 °F 29.6 in East 0.9 mph 1 mph 95% 0 in 160 W/m2
11:09 48.2 °F 46.8 °F 29.6 in Calm   1 mph 95% 0 in 179 W/m2
11:14 48.6 °F 47.1 °F 29.6 in Calm   1 mph 95% 0 in 281 W/m2
11:19 48.7 °F 47.1 °F 29.6 in NE 2 mph 3 mph 94% 0 in 199 W/m2
11:24 48.9 °F 47.3 °F 29.6 in North 0.9 mph 2 mph 94% 0 in 178 W/m2
11:29 49.3 °F 47.3 °F 29.6 in Calm   3 mph 93% 0 in 165 W/m2
11:35 49.3 °F 47.3 °F 29.6 in NE 2 mph 2 mph 93% 0 in 197 W/m2
11:40 49.6 °F 47.5 °F 29.6 in Calm   3 mph 92% 0 in 183 W/m2
11:45 49.8 °F 47.7 °F 29.6 in ENE 2.9 mph 3 mph 92% 0 in 172 W/m2
11:50 50 °F 47.5 °F 29.6 in ESE 0.9 mph 2 mph 91% 0 in 155 W/m2
11:55 50.2 °F 47.3 °F 29.6 in NE 0.9 mph 3 mph 90% 0 in 193 W/m2
12:00 50.5 °F 47.7 °F 29.6 in Calm   2 mph 90% 0 in 206 W/m2
12:05 50.7 °F 47.8 °F 29.6 in Calm   1 mph 90% 0 in 209 W/m2
12:10 51.1 °F 48 °F 29.6 in Calm   2 mph 89% 0 in 202 W/m2
12:15 51.3 °F 48.2 °F 29.6 in ESE 4 mph 4 mph 89% 0 in 234 W/m2
12:20 51.6 °F 48.6 °F 29.6 in ESE 0.9 mph 3 mph 89% 0 in 540 W/m2
12:25 52 °F 48.6 °F 29.6 in ENE 2 mph 3 mph 88% 0 in 550 W/m2
12:30 52.5 °F 49.1 °F 29.6 in East 2 mph 4 mph 88% 0 in 341 W/m2
12:35 53.1 °F 49.3 °F 29.6 in East 0.9 mph 1 mph 87% 0 in 239 W/m2
12:40 53.2 °F 48.9 °F 29.6 in ENE 4 mph 5 mph 85% 0 in 726 W/m2
12:45 53.8 °F 49.5 °F 29.6 in East 2 mph 4 mph 85% 0 in 722 W/m2
12:50 54.3 °F 49.8 °F 29.6 in Calm   6 mph 85% 0 in 737 W/m2
12:55 54.7 °F 49.3 °F 29.6 in ESE 2 mph 6 mph 82% 0 in 476 W/m2
13:00 54.3 °F 48.9 °F 29.6 in East 0.9 mph 6 mph 82% 0 in 301 W/m2
13:05 54.1 °F 49.1 °F 29.6 in East 2 mph 4 mph 83% 0 in 362 W/m2
13:10 54.1 °F 49.1 °F 29.6 in ENE 2.9 mph 6 mph 83% 0 in 775 W/m2
13:15 54.7 °F 49.6 °F 29.6 in WSW 2 mph 3 mph 83% 0 in 640 W/m2
13:20 55 °F 50 °F 29.6 in ESE 2 mph 6 mph 83% 0 in 745 W/m2
13:25 55.4 °F 49.6 °F 29.6 in East 2 mph 4 mph 81% 0 in 619 W/m2
13:30 55.6 °F 49.8 °F 29.6 in ESE 0.9 mph 5 mph 81% 0 in 211 W/m2
13:35 55.8 °F 50 °F 29.6 in East 2.9 mph 6 mph 81% 0 in 707 W/m2
13:40 55.8 °F 50 °F 29.6 in ENE 0.9 mph 3 mph 81% 0 in 693 W/m2
13:45 55.8 °F 49.3 °F 29.6 in East 2 mph 2 mph 79% 0 in 687 W/m2
13:50 55.9 °F 49.5 °F 29.6 in ENE 0.9 mph 4 mph 79% 0 in 686 W/m2
13:55 56.1 °F 49.3 °F 29.6 in East 2 mph 3 mph 78% 0 in 121 W/m2
14:00 56.1 °F 49.3 °F 29.6 in Calm   2 mph 78% 0 in 668 W/m2
14:05 56.1 °F 48.9 °F 29.6 in East 4 mph 4 mph 77% 0 in 153 W/m2
14:10 55.9 °F 48.2 °F 29.6 in Calm   1 mph 75% 0 in 176 W/m2
14:15 55.9 °F 48.9 °F 29.6 in ESE 2 mph 4 mph 77% 0 in 134 W/m2
14:20 55.9 °F 48.9 °F 29.6 in ENE 0.9 mph 2 mph 77% 0 in 125 W/m2
14:25 55.8 °F 48.9 °F 29.6 in Calm   1 mph 78% 0 in 134 W/m2
14:30 55.9 °F 49.1 °F 29.6 in NNE 0.9 mph 3 mph 78% 0 in 118 W/m2
14:35 55.8 °F 48.4 °F 29.6 in Calm   2 mph 76% 0 in 113 W/m2
14:40 55.6 °F 48.6 °F 29.6 in Calm   1 mph 77% 0 in 114 W/m2
14:45 55.8 °F 48.7 °F 29.6 in ENE 0.9 mph 1 mph 77% 0 in 104 W/m2
14:50 55.8 °F 49.6 °F 29.6 in Calm   1 mph 80% 0 in 109 W/m2
14:55 55.6 °F 50.5 °F 29.6 in ENE 0.9 mph 3 mph 83% 0.03 in 135 W/m2
15:00 55 °F 50 °F 29.6 in ENE 0.9 mph 1 mph 83% 0.06 in 162 W/m2
15:05 54.7 °F 50.2 °F 29.6 in Calm   1 mph 85% 0.06 in 163 W/m2
15:10 54.1 °F 50 °F 29.6 in Calm   1 mph 86% 0.06 in 137 W/m2
15:15 54.1 °F 50.4 °F 29.6 in Calm     87% 0.06 in 123 W/m2
15:20 54.1 °F 50.7 °F 29.6 in Calm   1 mph 88% 0.06 in 149 W/m2
15:25 54.1 °F 50.9 °F 29.6 in Calm     89% 0.06 in 134 W/m2
15:30 54.1 °F 50.9 °F 29.6 in Calm   1 mph 89% 0.06 in 114 W/m2
15:35 53.8 °F 50.5 °F 29.6 in ENE 0.9 mph 1 mph 89% 0.06 in 132 W/m2
15:40 53.4 °F 50.2 °F 29.6 in Calm     89% 0.06 in 149 W/m2
15:45 53.2 °F 50.4 °F 29.6 in Calm   1 mph 90% 0.06 in 148 W/m2
15:50 53.2 °F 50.4 °F 29.6 in ENE 0.9 mph 1 mph 90% 0.06 in 151 W/m2
15:55 53.2 °F 50.7 °F 29.6 in Calm     91% 0.02 in 104 W/m2
16:00 53.2 °F 50.7 °F 29.6 in Calm     91% 0 in 111 W/m2
16:05 53.2 °F 50.7 °F 29.6 in Calm     91% 0 in 141 W/m2
16:10 53.4 °F 51.1 °F 29.6 in Calm     92% 0 in 250 W/m2
16:15 53.6 °F 51.3 °F 29.6 in Calm     92% 0 in 146 W/m2
16:20 53.8 °F 51.4 °F 29.6 in Calm     92% 0 in 153 W/m2
16:25 54.1 °F 51.8 °F 29.6 in Calm     92% 0 in 381 W/m2
16:30 54.3 °F 51.8 °F 29.6 in Calm     91% 0 in 109 W/m2
16:35 54.5 °F 51.6 °F 29.6 in Calm     90% 0 in 104 W/m2
16:40 54.7 °F 51.8 °F 29.6 in Calm   2 mph 90% 0 in 70 W/m2
16:45 54.7 °F 51.4 °F 29.6 in ESE 0.9 mph 1 mph 89% 0 in 58 W/m2
16:50 54.9 °F 51.6 °F 29.6 in Calm     89% 0 in 69 W/m2
16:55 54.7 °F 51.4 °F 29.6 in Calm     89% 0 in 72 W/m2
17:00 54.3 °F 50.9 °F 29.6 in Calm   1 mph 88% 0 in 58 W/m2
17:05 54.1 °F 50.7 °F 29.6 in Calm     88% 0 in 54 W/m2
17:10 54 °F 50.5 °F 29.6 in WNW 2 mph 2 mph 88% 0 in 58 W/m2
17:15 53.8 °F 50 °F 29.6 in SSW 0.9 mph 3 mph 87% 0 in 54 W/m2
17:20 53.6 °F 49.8 °F 29.6 in SSE 0.9 mph 2 mph 87% 0 in 39 W/m2
17:25 53.4 °F 49.6 °F 29.6 in Calm   2 mph 87% 0 in 25 W/m2
17:30 53.1 °F 49.3 °F 29.6 in SSE 0.9 mph 1 mph 87% 0 in 21 W/m2
17:35 52.9 °F 49.5 °F 29.6 in Calm   1 mph 88% 0 in 18 W/m2
17:40 52.5 °F 49.1 °F 29.6 in Calm     88% 0 in 14 W/m2
17:45 52.3 °F 49.3 °F 29.6 in Calm     89% 0 in 16 W/m2
17:50 52.3 °F 49.3 °F 29.6 in SSE 0.9 mph 1 mph 89% 0.01 in 23 W/m2
17:55 52.2 °F 49.3 °F 29.6 in Calm     90% 0.02 in 25 W/m2
18:00 52 °F 49.1 °F 29.6 in Calm     90% 0.02 in 21 W/m2
18:05 52 °F 49.5 °F 29.6 in Calm     91% 0.03 in 25 W/m2
18:10 51.8 °F 49.3 °F 29.6 in Calm     91% 0.04 in 33 W/m2
18:15 51.6 °F 49.1 °F 29.6 in Calm     91% 0.04 in 39 W/m2
18:20 51.6 °F 49.1 °F 29.6 in Calm     91% 0.05 in 26 W/m2
18:25 51.4 °F 48.9 °F 29.6 in Calm     91% 0.05 in 19 W/m2
18:30 51.3 °F 48.7 °F 29.6 in Calm     91% 0.05 in 16 W/m2
18:35 51.1 °F 48.6 °F 29.6 in Calm   1 mph 91% 0.05 in 14 W/m2
18:40 50.9 °F 48.7 °F 29.6 in SSE 0.9 mph 1 mph 92% 0.05 in 14 W/m2
18:45 50.7 °F 48.6 °F 29.6 in Calm     92% 0.05 in 16 W/m2
18:50 50.5 °F 48.4 °F 29.6 in Calm     92% 0.04 in 18 W/m2
18:55 50.4 °F 48.2 °F 29.6 in Calm     92% 0.02 in 21 W/m2
19:00 50.2 °F 48 °F 29.6 in Calm     92% 0.02 in 25 W/m2
19:05 49.8 °F 47.7 °F 29.7 in Calm     92% 0.02 in 16 W/m2
19:10 49.6 °F 47.5 °F 29.6 in Calm   1 mph 92% 0.01 in 14 W/m2
19:15 49.5 °F 47.3 °F 29.6 in Calm     92% 0.01 in 9 W/m2
19:20 49.3 °F 47.3 °F 29.7 in Calm   1 mph 93% 0 in 12 W/m2
19:25 49.1 °F 46.9 °F 29.7 in SSE 0.9 mph 1 mph 92% 0 in 7 W/m2
19:30 48.9 °F 46.9 °F 29.7 in Calm   1 mph 93% 0 in 0 W/m2
19:35 48.6 °F 46.6 °F 29.7 in Calm   1 mph 93% 0 in 0 W/m2
19:40 48.4 °F 46.2 °F 29.7 in Calm   1 mph 92% 0 in 0 W/m2
19:45 48 °F 46 °F 29.7 in Calm   1 mph 93% 0 in 0 W/m2
19:50 47.8 °F 45.9 °F 29.7 in Calm   1 mph 93% 0 in 0 W/m2
19:55 47.5 °F 45.5 °F 29.7 in SSE 0.9 mph 2 mph 93% 0 in 0 W/m2
20:00 47.1 °F 45 °F 29.7 in Calm   2 mph 92% 0 in 0 W/m2
20:05 46.9 °F 45 °F 29.7 in Calm     93% 0 in 0 W/m2
20:10 46.8 °F 44.8 °F 29.7 in Calm   2 mph 93% 0 in 0 W/m2
20:15 46.6 °F 44.6 °F 29.7 in Calm   1 mph 93% 0 in 0 W/m2
20:20 46.6 °F 44.6 °F 29.7 in Calm     93% 0 in 0 W/m2
20:25 46.4 °F 44.4 °F 29.7 in Calm   1 mph 93% 0 in 0 W/m2
20:30 46.2 °F 44.2 °F 29.7 in South 0.9 mph 2 mph 93% 0 in 0 W/m2
20:35 46 °F 44.1 °F 29.7 in Calm   1 mph 93% 0 in 0 W/m2
20:40 46 °F 44.4 °F 29.7 in South 0.9 mph 1 mph 94% 0 in 0 W/m2
20:45 45.9 °F 44.2 °F 29.7 in Calm   2 mph 94% 0 in 0 W/m2
20:50 45.7 °F 44.1 °F 29.7 in Calm     94% 0 in 0 W/m2
20:55 45.7 °F 44.1 °F 29.7 in Calm   2 mph 94% 0 in 0 W/m2
21:00 45.3 °F 43.7 °F 29.7 in Calm     94% 0 in 0 W/m2
21:05 45.3 °F 43.7 °F 29.7 in Calm     94% 0 in 0 W/m2
21:10 45.1 °F 43.5 °F 29.7 in Calm     94% 0 in 0 W/m2
21:15 45 °F 43.3 °F 29.7 in Calm     94% 0 in 0 W/m2
21:20 45 °F 43.3 °F 29.7 in Calm     94% 0 in 0 W/m2
21:25 44.8 °F 43.2 °F 29.7 in Calm     94% 0 in 0 W/m2
21:30 44.6 °F 43 °F 29.7 in South 0.9 mph 2 mph 94% 0 in 0 W/m2
21:35 44.4 °F 42.8 °F 29.7 in Calm   1 mph 94% 0 in 0 W/m2
21:41 44.2 °F 42.6 °F 29.7 in South 0.9 mph 1 mph 94% 0 in 0 W/m2
21:46 44.2 °F 42.6 °F 29.7 in Calm   1 mph 94% 0 in 0 W/m2
21:51 44.1 °F 42.4 °F 29.7 in Calm   1 mph 94% 0 in 0 W/m2
21:56 44.1 °F 42.4 °F 29.7 in Calm     94% 0 in 0 W/m2
22:01 43.9 °F 42.3 °F 29.7 in Calm   1 mph 94% 0 in 0 W/m2
22:06 43.9 °F 42.3 °F 29.7 in Calm     94% 0 in 0 W/m2
22:11 43.9 °F 42.6 °F 29.7 in Calm     95% 0 in 0 W/m2
22:16 43.7 °F 42.4 °F 29.7 in Calm     95% 0 in 0 W/m2
22:21 43.5 °F 41.9 °F 29.7 in Calm     94% 0 in 0 W/m2
22:26 43.5 °F 41.9 °F 29.7 in Calm     94% 0 in 0 W/m2
22:31 43.5 °F 42.3 °F 29.7 in Calm   1 mph 95% 0 in 0 W/m2
22:36 43.5 °F 42.3 °F 29.7 in Calm     95% 0 in 0 W/m2
22:41 43.5 °F 42.3 °F 29.7 in Calm   1 mph 95% 0 in 0 W/m2
22:46 43.5 °F 42.3 °F 29.7 in Calm     95% 0 in 0 W/m2
22:51 43.3 °F 42.1 °F 29.7 in Calm     95% 0 in 0 W/m2
22:56 43.3 °F 42.1 °F 29.7 in Calm     95% 0 in 0 W/m2
23:01 43.3 °F 42.1 °F 29.7 in Calm     95% 0 in 0 W/m2
23:06 43.3 °F 42.1 °F 29.7 in Calm     95% 0 in 0 W/m2
23:11 43.3 °F 42.1 °F 29.7 in Calm   1 mph 95% 0 in 0 W/m2
23:16 43.3 °F 42.1 °F 29.7 in Calm     95% 0 in 0 W/m2
23:21 43.3 °F 42.1 °F 29.7 in Calm     95% 0 in 0 W/m2
23:26 43.5 °F 42.3 °F 29.7 in Calm     95% 0 in 0 W/m2
23:31 43.5 °F 42.3 °F 29.7 in Calm     95% 0 in 0 W/m2
23:36 43.3 °F 42.1 °F 29.7 in Calm     95% 0 in 0 W/m2
23:41 43.2 °F 41.9 °F 29.7 in Calm     95% 0 in 0 W/m2
23:46 43 °F 41.7 °F 29.7 in Calm     95% 0 in 0 W/m2
23:51 43 °F 41.7 °F 29.7 in Calm     95% 0 in 0 W/m2
23:56 42.6 °F 41.4 °F 29.7 in Calm     95% 0 in 0 W/m2
Juneau County Weather
Compliments of Weather Underground - 4 mb